Terminal Aerodrome Forecast
Issued by NWS Cleveland, OH

Home | Current Version | Previous Version | Text Only | Print | Product List | Glossary On
Versions: 1 2 3 4 5 6 7 8 9 10 11 12 13 14 15 16 17
000
FTUS41 KCLE 011700
TAFERI
TAF
KERI 011720Z 0118/0218 32006KT P6SM SCT100
     FM012100 36006KT P6SM SCT050 BKN100
     FM020300 16003KT P6SM BKN050=

USA.gov is the U.S. government's official web portal to all federal, state and local government web resources and services.